Thursday, September 20, 2018, 8:39 AM EDT
Back to Local

KBOS, Boston Logan International

Location: Boston, MA, United States Lat: 42.367
Local Time: 8:39 AM EDT (12:39 GMT) Lon: -71.017
Time Zone: US/Eastern Elev: 19 ft

Show me the last for .
Show Decoded

2018-09-20 07:54 METAR KBOS 201154Z 04011KT 10SM FEW013 SCT024 SCT045 16/13 A3021 RMK AO2 SLP228
                 T01610133 10167 20156 53020 =
2018-09-20 07:47 METAR KBOS 201147Z 03010KT 10SM FEW013 SCT024 SCT045 16/13 A3020 RMK AO2
                 T01610133 =
2018-09-20 06:54 METAR KBOS 201054Z 03010KT 10SM SCT016 BKN023 16/13 A3018 RMK AO2 SLP218
                 T01610133 =
2018-09-20 06:16 METAR KBOS 201016Z 03010KT 10SM SCT013 BKN019 BKN040 16/13 A3016 RMK AO2
                 T01610133 =
2018-09-20 05:54 METAR KBOS 200954Z 03011KT 10SM SCT013 BKN049 16/13 A3016 RMK AO2 SLP211
                 T01610133 =
2018-09-20 04:54 METAR KBOS 200854Z 02011KT 10SM SCT013 BKN022 16/13 A3015 RMK AO2 SLP208
                 T01560133 52007 =
2018-09-20 03:54 METAR KBOS 200754Z 01011KT 10SM FEW013 BKN022 16/13 A3014 RMK AO2 SLP207
                 T01610133 =
2018-09-20 02:54 METAR KBOS 200654Z 04011KT 10SM BKN017 BKN035 17/13 A3013 RMK AO2 SLP203
                 T01670133 =
2018-09-20 02:17 METAR KBOS 200617Z 03011KT 10SM SCT017 BKN022 BKN037 16/13 A3012 RMK AO2
                 T01610133 =
2018-09-20 01:54 METAR KBOS 200554Z 35006KT 10SM SCT017 BKN032 BKN055 17/13 A3013 RMK AO2 SLP201
                 T01670133 10172 20161 51012 =
2018-09-20 00:54 METAR KBOS 200454Z 36007KT 10SM FEW022 BKN030 BKN037 17/13 A3012 RMK AO2 SLP199
                 T01670128 402170167 =
2018-09-19 23:54 METAR KBOS 200354Z 01008KT 10SM FEW021 OVC027 17/13 A3010 RMK AO2 SLP193
                 T01670128 =
2018-09-19 23:41 METAR KBOS 200341Z 02011KT 10SM FEW021 BKN027 17/13 A3010 RMK AO2 T01670128 =
2018-09-19 22:54 METAR KBOS 200254Z 05011KT 10SM FEW022 OVC050 17/12 A3009 RMK AO2 SLP189
                 T01670122 51011 =
2018-09-19 21:54 METAR KBOS 200154Z 04010KT 10SM SCT021 BKN033 OVC050 17/13 A3009 RMK AO2 CIG 022
                 E SLP187 T01720128 =
2018-09-19 20:54 METAR KBOS 200054Z 04010KT 10SM FEW013 BKN033 BKN050 OVC140 17/13 A3008 RMK AO2
                 SLP184 T01720133 =
2018-09-19 19:54 METAR KBOS 192354Z 05011KT 10SM FEW012 BKN032 BKN050 OVC140 17/13 A3006 RMK AO2
                 SLP178 T01720128 10183 20172 51022 =
2018-09-19 18:54 METAR KBOS 192254Z 04007KT 10SM SCT019 BKN033 BKN050 OVC140 17/13 A3004 RMK AO2
                 SLP173 T01720128 =
2018-09-19 18:42 METAR KBOS 192242Z 04008KT 10SM FEW010 SCT019 BKN050 OVC140 17/13 A3004 RMK AO2
                 T01720128 =
2018-09-19 18:17 METAR KBOS 192217Z 03009KT 10SM FEW010 BKN019 BKN050 BKN140 17/13 A3004 RMK AO2
                 T01720128 =
2018-09-19 17:54 METAR KBOS 192154Z 04010KT 10SM FEW010 SCT022 BKN050 BKN140 17/13 A3003 RMK AO2
                 SLP169 T01720128 =
2018-09-19 16:54 METAR KBOS 192054Z 05009KT 10SM SCT023 BKN050 BKN140 18/13 A2999 RMK AO2 SLP156
                 T01830133 53006 =
2018-09-19 16:10 METAR KBOS 192010Z 07009KT 10SM SCT023 BKN050 BKN140 18/13 A2999 RMK AO2
                 T01830133 =
2018-09-19 15:54 METAR KBOS 191954Z 07009KT 10SM BKN018 BKN041 18/14 A2999 RMK AO2 SLP155
                 T01780139 =
2018-09-19 14:54 METAR KBOS 191854Z 05009KT 10SM BKN016 OVC028 18/14 A2998 RMK AO2 SLP150
                 T01780139 =
2018-09-19 14:27 METAR KBOS 191827Z 03010KT 10SM BKN017 OVC027 18/14 A2997 RMK AO2 T01780144 =
2018-09-19 13:54 METAR KBOS 191754Z 05011KT 10SM BKN013 OVC027 18/14 A2998 RMK AO2 SLP150 60000
                 T01780144 10183 20172 51004 =
2018-09-19 13:30 METAR KBOS 191730Z 05011KT 10SM BKN011 OVC018 18/14 A2998 RMK AO2 T01780144 =
2018-09-19 13:11 METAR KBOS 191711Z 04010KT 7SM OVC015 18/15 A2998 RMK AO2 T01830150 =
2018-09-19 12:54 METAR KBOS 191654Z 04008KT 10SM BKN010 OVC017 18/15 A2997 RMK AO2 DZE28 SLP150
                 P0000 T01780150 =
2018-09-19 12:41 METAR KBOS 191641Z 04010KT 9SM OVC010 17/15 A2998 RMK AO2 DZE28 P0000 T01720150
                 =
2018-09-19 11:54 METAR KBOS 191554Z 05008KT 3SM -DZ OVC009 17/15 A2997 RMK A02 DZB44 SLP149 P0000
                 T01720150 =
2018-09-19 11:15 METAR KBOS 191515Z 03011KT 10SM OVC009 18/15 A2997 RMK AO2 T01780150 =
2018-09-19 10:54 METAR KBOS 191454Z 04010KT 9SM OVC010 17/15 A2997 RMK AO2 SLP146 60000 T01720150
                 51024 =
2018-09-19 09:54 METAR KBOS 191354Z 03012KT 10SM BKN010 OVC014 17/15 A2995 RMK AO2 RAB33E42
                 SLP140 P0000 T01720150 =
2018-09-19 09:43 METAR KBOS 191343Z 04013KT 9SM BKN008 OVC013 17/16 A2994 RMK AO2 RAB33E42 P0000
                 T01720156 =
2018-09-19 09:26 METAR KBOS 191326Z 02012KT 2 1/2SM BR OVC008 17/16 A2994 RMK AO2 VIS 1 3/4V5
                 T01720156 =
2018-09-19 08:54 METAR KBOS 191254Z 02010KT 8SM OVC008 17/16 A2992 RMK AO2 SLP131 T01720156 =

Support USWX by starting your Amazon purchase here.